sensor_id;sensor_type;location;lat;lon;timestamp;P1;durP1;ratioP1;P2;durP2;ratioP2
7929;SDS011;4010;42.698;23.124;2024-01-15T00:01:20;14.25;;;7.40;;
7929;SDS011;4010;42.698;23.124;2024-01-15T00:03:47;9.93;;;5.38;;
7929;SDS011;4010;42.698;23.124;2024-01-15T00:06:14;10.75;;;5.15;;
7929;SDS011;4010;42.698;23.124;2024-01-15T00:08:42;17.38;;;7.47;;
7929;SDS011;4010;42.698;23.124;2024-01-15T00:11:08;6.47;;;3.95;;
7929;SDS011;4010;42.698;23.124;2024-01-15T00:13:35;5.18;;;2.85;;
7929;SDS011;4010;42.698;23.124;2024-01-15T00:16:02;4.15;;;2.97;;
7929;SDS011;4010;42.698;23.124;2024-01-15T00:18:30;4.10;;;2.90;;
7929;SDS011;4010;42.698;23.124;2024-01-15T00:20:56;4.38;;;2.78;;
7929;SDS011;4010;42.698;23.124;2024-01-15T00:23:23;5.35;;;3.05;;
7929;SDS011;4010;42.698;23.124;2024-01-15T00:25:52;7.60;;;3.57;;
7929;SDS011;4010;42.698;23.124;2024-01-15T00:28:18;10.82;;;5.50;;
7929;SDS011;4010;42.698;23.124;2024-01-15T00:30:45;9.95;;;4.72;;
7929;SDS011;4010;42.698;23.124;2024-01-15T00:33:12;10.63;;;6.10;;
7929;SDS011;4010;42.698;23.124;2024-01-15T00:35:39;6.32;;;3.75;;
7929;SDS011;4010;42.698;23.124;2024-01-15T00:38:06;6.87;;;3.20;;
7929;SDS011;4010;42.698;23.124;2024-01-15T00:40:33;5.15;;;2.88;;
7929;SDS011;4010;42.698;23.124;2024-01-15T00:43:01;4.77;;;2.60;;
7929;SDS011;4010;42.698;23.124;2024-01-15T00:45:28;7.43;;;4.05;;
7929;SDS011;4010;42.698;23.124;2024-01-15T00:47:55;8.50;;;4.60;;
7929;SDS011;4010;42.698;23.124;2024-01-15T00:50:24;20.33;;;7.10;;
7929;SDS011;4010;42.698;23.124;2024-01-15T00:52:51;13.05;;;5.18;;
7929;SDS011;4010;42.698;23.124;2024-01-15T00:55:17;9.55;;;5.43;;
7929;SDS011;4010;42.698;23.124;2024-01-15T00:57:44;13.85;;;5.15;;
7929;SDS011;4010;42.698;23.124;2024-01-15T01:00:13;11.32;;;5.00;;
7929;SDS011;4010;42.698;23.124;2024-01-15T01:02:41;14.75;;;6.15;;
7929;SDS011;4010;42.698;23.124;2024-01-15T01:05:08;9.82;;;5.13;;
7929;SDS011;4010;42.698;23.124;2024-01-15T01:07:34;11.98;;;4.63;;
7929;SDS011;4010;42.698;23.124;2024-01-15T01:10:01;12.20;;;4.82;;
7929;SDS011;4010;42.698;23.124;2024-01-15T01:12:27;8.05;;;4.55;;
7929;SDS011;4010;42.698;23.124;2024-01-15T01:14:54;10.20;;;5.10;;
7929;SDS011;4010;42.698;23.124;2024-01-15T01:17:23;9.38;;;5.35;;
7929;SDS011;4010;42.698;23.124;2024-01-15T01:19:49;7.70;;;4.05;;
7929;SDS011;4010;42.698;23.124;2024-01-15T01:22:16;6.43;;;4.35;;
7929;SDS011;4010;42.698;23.124;2024-01-15T01:24:43;11.15;;;5.18;;
7929;SDS011;4010;42.698;23.124;2024-01-15T01:27:10;12.25;;;5.00;;
7929;SDS011;4010;42.698;23.124;2024-01-15T01:29:36;8.55;;;4.40;;
7929;SDS011;4010;42.698;23.124;2024-01-15T01:32:03;12.02;;;4.90;;
7929;SDS011;4010;42.698;23.124;2024-01-15T01:34:32;11.63;;;4.75;;
7929;SDS011;4010;42.698;23.124;2024-01-15T01:36:59;10.23;;;5.45;;
7929;SDS011;4010;42.698;23.124;2024-01-15T01:39:25;9.52;;;4.40;;
7929;SDS011;4010;42.698;23.124;2024-01-15T01:41:52;18.45;;;8.88;;
7929;SDS011;4010;42.698;23.124;2024-01-15T01:44:19;9.65;;;5.28;;
7929;SDS011;4010;42.698;23.124;2024-01-15T01:46:45;7.07;;;4.60;;
7929;SDS011;4010;42.698;23.124;2024-01-15T01:49:12;4.95;;;3.08;;
7929;SDS011;4010;42.698;23.124;2024-01-15T01:51:40;6.82;;;3.30;;
7929;SDS011;4010;42.698;23.124;2024-01-15T01:54:07;9.00;;;4.55;;
7929;SDS011;4010;42.698;23.124;2024-01-15T01:56:53;6.63;;;3.00;;
7929;SDS011;4010;42.698;23.124;2024-01-15T01:59:20;8.70;;;4.25;;
7929;SDS011;4010;42.698;23.124;2024-01-15T02:01:49;8.15;;;4.53;;
7929;SDS011;4010;42.698;23.124;2024-01-15T02:04:17;9.75;;;4.25;;
7929;SDS011;4010;42.698;23.124;2024-01-15T02:06:45;10.60;;;4.70;;
7929;SDS011;4010;42.698;23.124;2024-01-15T02:09:11;9.55;;;4.65;;
7929;SDS011;4010;42.698;23.124;2024-01-15T02:11:40;8.32;;;4.13;;
7929;SDS011;4010;42.698;23.124;2024-01-15T02:14:07;6.93;;;3.15;;
7929;SDS011;4010;42.698;23.124;2024-01-15T02:16:35;3.58;;;2.38;;
7929;SDS011;4010;42.698;23.124;2024-01-15T02:19:03;3.10;;;2.10;;
7929;SDS011;4010;42.698;23.124;2024-01-15T02:21:30;6.00;;;2.85;;
7929;SDS011;4010;42.698;23.124;2024-01-15T02:23:59;5.30;;;2.90;;
7929;SDS011;4010;42.698;23.124;2024-01-15T02:26:26;3.08;;;2.10;;
7929;SDS011;4010;42.698;23.124;2024-01-15T02:28:53;5.78;;;2.70;;
7929;SDS011;4010;42.698;23.124;2024-01-15T02:31:20;4.43;;;2.50;;
7929;SDS011;4010;42.698;23.124;2024-01-15T02:33:47;4.27;;;2.00;;
7929;SDS011;4010;42.698;23.124;2024-01-15T02:36:14;3.97;;;2.45;;
7929;SDS011;4010;42.698;23.124;2024-01-15T02:38:42;4.95;;;3.00;;
7929;SDS011;4010;42.698;23.124;2024-01-15T02:41:10;4.17;;;2.97;;
7929;SDS011;4010;42.698;23.124;2024-01-15T02:43:39;3.00;;;2.50;;
7929;SDS011;4010;42.698;23.124;2024-01-15T02:46:05;4.68;;;3.00;;
7929;SDS011;4010;42.698;23.124;2024-01-15T02:48:32;4.93;;;2.97;;
7929;SDS011;4010;42.698;23.124;2024-01-15T02:51:00;6.13;;;3.30;;
7929;SDS011;4010;42.698;23.124;2024-01-15T02:53:27;8.27;;;3.80;;
7929;SDS011;4010;42.698;23.124;2024-01-15T02:55:54;9.10;;;4.23;;
7929;SDS011;4010;42.698;23.124;2024-01-15T02:58:22;5.83;;;3.20;;
7929;SDS011;4010;42.698;23.124;2024-01-15T03:00:48;4.53;;;2.93;;
7929;SDS011;4010;42.698;23.124;2024-01-15T03:03:15;8.27;;;3.47;;
7929;SDS011;4010;42.698;23.124;2024-01-15T03:05:42;6.72;;;3.92;;
7929;SDS011;4010;42.698;23.124;2024-01-15T03:08:08;6.40;;;3.73;;
7929;SDS011;4010;42.698;23.124;2024-01-15T03:10:35;9.80;;;4.00;;
7929;SDS011;4010;42.698;23.124;2024-01-15T03:13:02;6.60;;;4.20;;
7929;SDS011;4010;42.698;23.124;2024-01-15T03:15:30;6.87;;;3.77;;
7929;SDS011;4010;42.698;23.124;2024-01-15T03:17:57;9.85;;;5.38;;
7929;SDS011;4010;42.698;23.124;2024-01-15T03:20:23;9.77;;;5.35;;
7929;SDS011;4010;42.698;23.124;2024-01-15T03:22:50;11.05;;;6.93;;
7929;SDS011;4010;42.698;23.124;2024-01-15T03:25:17;20.17;;;10.35;;
7929;SDS011;4010;42.698;23.124;2024-01-15T03:27:43;19.98;;;10.27;;
7929;SDS011;4010;42.698;23.124;2024-01-15T03:30:11;18.20;;;10.05;;
7929;SDS011;4010;42.698;23.124;2024-01-15T03:32:40;19.05;;;10.10;;
7929;SDS011;4010;42.698;23.124;2024-01-15T03:35:07;20.80;;;10.57;;
7929;SDS011;4010;42.698;23.124;2024-01-15T03:37:34;18.80;;;10.93;;
7929;SDS011;4010;42.698;23.124;2024-01-15T03:40:00;22.23;;;11.32;;
7929;SDS011;4010;42.698;23.124;2024-01-15T03:42:27;22.08;;;10.77;;
7929;SDS011;4010;42.698;23.124;2024-01-15T03:44:54;22.15;;;10.88;;
7929;SDS011;4010;42.698;23.124;2024-01-15T03:47:20;27.98;;;12.57;;
7929;SDS011;4010;42.698;23.124;2024-01-15T03:49:48;22.92;;;12.23;;
7929;SDS011;4010;42.698;23.124;2024-01-15T03:52:15;21.55;;;10.95;;
7929;SDS011;4010;42.698;23.124;2024-01-15T03:54:42;19.30;;;11.35;;
7929;SDS011;4010;42.698;23.124;2024-01-15T03:57:08;23.73;;;12.05;;
7929;SDS011;4010;42.698;23.124;2024-01-15T03:59:35;21.95;;;10.55;;
7929;SDS011;4010;42.698;23.124;2024-01-15T04:02:02;18.95;;;11.60;;
7929;SDS011;4010;42.698;23.124;2024-01-15T04:04:29;25.33;;;13.57;;
7929;SDS011;4010;42.698;23.124;2024-01-15T04:06:57;26.50;;;13.35;;
7929;SDS011;4010;42.698;23.124;2024-01-15T04:09:23;31.88;;;14.30;;
7929;SDS011;4010;42.698;23.124;2024-01-15T04:11:50;24.05;;;12.63;;
7929;SDS011;4010;42.698;23.124;2024-01-15T04:14:17;19.60;;;11.20;;
7929;SDS011;4010;42.698;23.124;2024-01-15T04:16:43;22.80;;;12.68;;
7929;SDS011;4010;42.698;23.124;2024-01-15T04:19:10;20.98;;;12.88;;
7929;SDS011;4010;42.698;23.124;2024-01-15T04:21:37;20.25;;;11.80;;
7929;SDS011;4010;42.698;23.124;2024-01-15T04:24:05;24.02;;;11.45;;
7929;SDS011;4010;42.698;23.124;2024-01-15T04:26:32;23.42;;;11.25;;
7929;SDS011;4010;42.698;23.124;2024-01-15T04:28:58;21.50;;;10.82;;
7929;SDS011;4010;42.698;23.124;2024-01-15T04:31:25;17.20;;;10.88;;
7929;SDS011;4010;42.698;23.124;2024-01-15T04:33:53;23.13;;;10.98;;
7929;SDS011;4010;42.698;23.124;2024-01-15T04:36:19;19.77;;;9.48;;
7929;SDS011;4010;42.698;23.124;2024-01-15T04:38:46;19.60;;;9.55;;
7929;SDS011;4010;42.698;23.124;2024-01-15T04:41:14;22.52;;;10.93;;
7929;SDS011;4010;42.698;23.124;2024-01-15T04:43:42;21.63;;;10.20;;
7929;SDS011;4010;42.698;23.124;2024-01-15T04:46:09;20.60;;;9.80;;
7929;SDS011;4010;42.698;23.124;2024-01-15T04:48:36;22.48;;;10.70;;
7929;SDS011;4010;42.698;23.124;2024-01-15T04:51:03;18.15;;;8.95;;
7929;SDS011;4010;42.698;23.124;2024-01-15T04:53:31;16.67;;;9.23;;
7929;SDS011;4010;42.698;23.124;2024-01-15T04:55:57;13.57;;;7.53;;
7929;SDS011;4010;42.698;23.124;2024-01-15T04:58:26;19.88;;;7.88;;
7929;SDS011;4010;42.698;23.124;2024-01-15T05:00:52;11.48;;;6.68;;
7929;SDS011;4010;42.698;23.124;2024-01-15T05:03:20;16.90;;;9.32;;
7929;SDS011;4010;42.698;23.124;2024-01-15T05:05:47;21.65;;;9.95;;
7929;SDS011;4010;42.698;23.124;2024-01-15T05:08:13;17.00;;;9.82;;
7929;SDS011;4010;42.698;23.124;2024-01-15T05:10:40;17.83;;;8.93;;
7929;SDS011;4010;42.698;23.124;2024-01-15T05:13:07;26.20;;;12.63;;
7929;SDS011;4010;42.698;23.124;2024-01-15T05:15:35;21.55;;;10.57;;
7929;SDS011;4010;42.698;23.124;2024-01-15T05:18:02;16.90;;;8.85;;
7929;SDS011;4010;42.698;23.124;2024-01-15T05:20:31;19.42;;;8.93;;
7929;SDS011;4010;42.698;23.124;2024-01-15T05:22:58;20.10;;;10.30;;
7929;SDS011;4010;42.698;23.124;2024-01-15T05:25:25;17.67;;;9.07;;
7929;SDS011;4010;42.698;23.124;2024-01-15T05:27:51;21.38;;;9.43;;
7929;SDS011;4010;42.698;23.124;2024-01-15T05:30:18;19.80;;;9.63;;
7929;SDS011;4010;42.698;23.124;2024-01-15T05:32:46;18.38;;;9.43;;
7929;SDS011;4010;42.698;23.124;2024-01-15T05:35:13;16.58;;;8.57;;
7929;SDS011;4010;42.698;23.124;2024-01-15T05:37:41;17.42;;;9.73;;
7929;SDS011;4010;42.698;23.124;2024-01-15T05:40:10;22.00;;;11.45;;
7929;SDS011;4010;42.698;23.124;2024-01-15T05:42:37;23.58;;;12.57;;
7929;SDS011;4010;42.698;23.124;2024-01-15T05:45:04;21.88;;;9.27;;
7929;SDS011;4010;42.698;23.124;2024-01-15T05:47:31;20.30;;;10.93;;
7929;SDS011;4010;42.698;23.124;2024-01-15T05:50:00;29.73;;;14.55;;
7929;SDS011;4010;42.698;23.124;2024-01-15T05:52:26;22.60;;;11.88;;
7929;SDS011;4010;42.698;23.124;2024-01-15T05:54:53;37.53;;;19.10;;
7929;SDS011;4010;42.698;23.124;2024-01-15T05:57:20;23.35;;;10.80;;
7929;SDS011;4010;42.698;23.124;2024-01-15T05:59:46;22.80;;;11.45;;
7929;SDS011;4010;42.698;23.124;2024-01-15T06:02:13;22.13;;;11.50;;
7929;SDS011;4010;42.698;23.124;2024-01-15T06:04:40;99.22;;;48.40;;
7929;SDS011;4010;42.698;23.124;2024-01-15T06:07:08;25.77;;;13.80;;
7929;SDS011;4010;42.698;23.124;2024-01-15T06:09:34;42.30;;;19.65;;
7929;SDS011;4010;42.698;23.124;2024-01-15T06:12:01;18.92;;;11.07;;
7929;SDS011;4010;42.698;23.124;2024-01-15T06:14:28;32.30;;;15.88;;
7929;SDS011;4010;42.698;23.124;2024-01-15T06:16:54;33.10;;;17.27;;
7929;SDS011;4010;42.698;23.124;2024-01-15T06:19:21;26.27;;;13.88;;
7929;SDS011;4010;42.698;23.124;2024-01-15T06:21:48;34.05;;;19.30;;
7929;SDS011;4010;42.698;23.124;2024-01-15T06:24:16;22.10;;;11.23;;
7929;SDS011;4010;42.698;23.124;2024-01-15T06:26:46;18.63;;;11.50;;
7929;SDS011;4010;42.698;23.124;2024-01-15T06:29:12;27.40;;;13.90;;
7929;SDS011;4010;42.698;23.124;2024-01-15T06:31:39;24.02;;;11.52;;
7929;SDS011;4010;42.698;23.124;2024-01-15T06:34:05;21.35;;;11.40;;
7929;SDS011;4010;42.698;23.124;2024-01-15T06:36:32;25.77;;;11.85;;
7929;SDS011;4010;42.698;23.124;2024-01-15T06:38:59;21.80;;;11.27;;
7929;SDS011;4010;42.698;23.124;2024-01-15T06:41:27;24.45;;;13.10;;
7929;SDS011;4010;42.698;23.124;2024-01-15T06:43:53;19.33;;;10.63;;
7929;SDS011;4010;42.698;23.124;2024-01-15T06:46:20;20.30;;;11.25;;
7929;SDS011;4010;42.698;23.124;2024-01-15T06:48:47;23.08;;;12.45;;
7929;SDS011;4010;42.698;23.124;2024-01-15T06:51:15;23.40;;;12.93;;
7929;SDS011;4010;42.698;23.124;2024-01-15T06:53:42;20.33;;;10.48;;
7929;SDS011;4010;42.698;23.124;2024-01-15T06:56:09;20.10;;;11.13;;
7929;SDS011;4010;42.698;23.124;2024-01-15T06:58:37;23.08;;;11.10;;
7929;SDS011;4010;42.698;23.124;2024-01-15T07:01:03;20.70;;;11.65;;
7929;SDS011;4010;42.698;23.124;2024-01-15T07:03:30;19.60;;;10.88;;
7929;SDS011;4010;42.698;23.124;2024-01-15T07:05:57;20.35;;;11.45;;
7929;SDS011;4010;42.698;23.124;2024-01-15T07:08:24;17.63;;;10.35;;
7929;SDS011;4010;42.698;23.124;2024-01-15T07:10:50;16.27;;;9.48;;
7929;SDS011;4010;42.698;23.124;2024-01-15T07:13:17;22.67;;;10.13;;
7929;SDS011;4010;42.698;23.124;2024-01-15T07:15:45;27.35;;;14.00;;
7929;SDS011;4010;42.698;23.124;2024-01-15T07:18:12;28.42;;;14.60;;
7929;SDS011;4010;42.698;23.124;2024-01-15T07:20:39;29.63;;;16.20;;
7929;SDS011;4010;42.698;23.124;2024-01-15T07:23:05;24.10;;;14.32;;
7929;SDS011;4010;42.698;23.124;2024-01-15T07:25:33;22.27;;;12.95;;
7929;SDS011;4010;42.698;23.124;2024-01-15T07:27:59;40.75;;;19.65;;
7929;SDS011;4010;42.698;23.124;2024-01-15T07:30:26;80.68;;;43.22;;
7929;SDS011;4010;42.698;23.124;2024-01-15T07:32:54;39.70;;;20.30;;
7929;SDS011;4010;42.698;23.124;2024-01-15T07:35:21;35.30;;;19.90;;
7929;SDS011;4010;42.698;23.124;2024-01-15T07:37:47;24.20;;;13.52;;
7929;SDS011;4010;42.698;23.124;2024-01-15T07:40:14;26.15;;;13.98;;
7929;SDS011;4010;42.698;23.124;2024-01-15T07:42:41;27.33;;;15.02;;
7929;SDS011;4010;42.698;23.124;2024-01-15T07:45:08;30.23;;;15.27;;
7929;SDS011;4010;42.698;23.124;2024-01-15T07:47:36;23.77;;;13.73;;
7929;SDS011;4010;42.698;23.124;2024-01-15T07:50:04;25.75;;;14.15;;
7929;SDS011;4010;42.698;23.124;2024-01-15T07:52:31;25.50;;;14.55;;
7929;SDS011;4010;42.698;23.124;2024-01-15T07:54:58;32.73;;;16.20;;
7929;SDS011;4010;42.698;23.124;2024-01-15T07:57:26;32.58;;;16.38;;
7929;SDS011;4010;42.698;23.124;2024-01-15T07:59:52;35.60;;;16.70;;
7929;SDS011;4010;42.698;23.124;2024-01-15T08:02:19;23.75;;;14.00;;
7929;SDS011;4010;42.698;23.124;2024-01-15T08:04:46;23.05;;;12.90;;
7929;SDS011;4010;42.698;23.124;2024-01-15T08:07:14;11.80;;;7.53;;
7929;SDS011;4010;42.698;23.124;2024-01-15T08:09:42;12.53;;;6.67;;
7929;SDS011;4010;42.698;23.124;2024-01-15T08:12:09;12.60;;;7.03;;
7929;SDS011;4010;42.698;23.124;2024-01-15T08:14:36;15.50;;;8.63;;
7929;SDS011;4010;42.698;23.124;2024-01-15T08:17:03;17.13;;;10.33;;
7929;SDS011;4010;42.698;23.124;2024-01-15T08:19:30;14.37;;;8.73;;
7929;SDS011;4010;42.698;23.124;2024-01-15T08:21:57;20.73;;;11.50;;
7929;SDS011;4010;42.698;23.124;2024-01-15T08:24:25;21.60;;;12.37;;
7929;SDS011;4010;42.698;23.124;2024-01-15T08:26:51;20.23;;;11.80;;
7929;SDS011;4010;42.698;23.124;2024-01-15T08:29:18;22.30;;;11.30;;
7929;SDS011;4010;42.698;23.124;2024-01-15T08:31:46;17.03;;;9.67;;
7929;SDS011;4010;42.698;23.124;2024-01-15T08:34:12;18.57;;;10.43;;
7929;SDS011;4010;42.698;23.124;2024-01-15T08:36:39;19.97;;;10.83;;
7929;SDS011;4010;42.698;23.124;2024-01-15T08:39:06;17.57;;;10.13;;
7929;SDS011;4010;42.698;23.124;2024-01-15T08:41:35;14.63;;;8.73;;
7929;SDS011;4010;42.698;23.124;2024-01-15T08:44:02;15.20;;;9.50;;
7929;SDS011;4010;42.698;23.124;2024-01-15T08:46:29;15.60;;;7.70;;
7929;SDS011;4010;42.698;23.124;2024-01-15T08:48:56;15.20;;;8.60;;
7929;SDS011;4010;42.698;23.124;2024-01-15T08:51:22;14.27;;;8.13;;
7929;SDS011;4010;42.698;23.124;2024-01-15T08:53:49;16.13;;;8.53;;
7929;SDS011;4010;42.698;23.124;2024-01-15T08:56:16;14.80;;;8.43;;
7929;SDS011;4010;42.698;23.124;2024-01-15T08:58:44;24.27;;;12.37;;
7929;SDS011;4010;42.698;23.124;2024-01-15T09:01:11;30.00;;;12.47;;
7929;SDS011;4010;42.698;23.124;2024-01-15T09:03:38;23.27;;;11.23;;
7929;SDS011;4010;42.698;23.124;2024-01-15T09:06:06;23.80;;;11.20;;
7929;SDS011;4010;42.698;23.124;2024-01-15T09:08:34;40.13;;;21.03;;
7929;SDS011;4010;42.698;23.124;2024-01-15T09:11:01;18.77;;;11.10;;
7929;SDS011;4010;42.698;23.124;2024-01-15T09:13:29;20.47;;;11.80;;
7929;SDS011;4010;42.698;23.124;2024-01-15T09:15:57;20.37;;;10.67;;
7929;SDS011;4010;42.698;23.124;2024-01-15T09:18:24;22.37;;;12.10;;
7929;SDS011;4010;42.698;23.124;2024-01-15T09:20:51;21.27;;;13.43;;
7929;SDS011;4010;42.698;23.124;2024-01-15T09:23:18;21.10;;;12.50;;
7929;SDS011;4010;42.698;23.124;2024-01-15T09:25:44;20.37;;;12.77;;
7929;SDS011;4010;42.698;23.124;2024-01-15T09:28:11;25.20;;;14.27;;
7929;SDS011;4010;42.698;23.124;2024-01-15T09:30:38;25.40;;;15.80;;
7929;SDS011;4010;42.698;23.124;2024-01-15T09:33:06;25.53;;;14.87;;
7929;SDS011;4010;42.698;23.124;2024-01-15T09:35:32;28.00;;;15.93;;
7929;SDS011;4010;42.698;23.124;2024-01-15T09:37:59;22.03;;;13.40;;
7929;SDS011;4010;42.698;23.124;2024-01-15T09:40:27;3.83;;;2.97;;
7929;SDS011;4010;42.698;23.124;2024-01-15T09:42:58;3.90;;;2.20;;
7929;SDS011;4010;42.698;23.124;2024-01-15T09:45:24;4.43;;;2.00;;
7929;SDS011;4010;42.698;23.124;2024-01-15T09:47:52;3.60;;;2.00;;
7929;SDS011;4010;42.698;23.124;2024-01-15T09:50:20;3.50;;;1.90;;
7929;SDS011;4010;42.698;23.124;2024-01-15T09:52:47;4.37;;;2.20;;
7929;SDS011;4010;42.698;23.124;2024-01-15T09:55:15;3.47;;;1.97;;
7929;SDS011;4010;42.698;23.124;2024-01-15T09:57:44;5.03;;;3.20;;
7929;SDS011;4010;42.698;23.124;2024-01-15T10:00:12;3.23;;;2.23;;
7929;SDS011;4010;42.698;23.124;2024-01-15T10:02:39;2.20;;;2.00;;
7929;SDS011;4010;42.698;23.124;2024-01-15T10:05:06;2.97;;;2.17;;
7929;SDS011;4010;42.698;23.124;2024-01-15T10:07:36;3.10;;;2.00;;
7929;SDS011;4010;42.698;23.124;2024-01-15T10:10:05;2.20;;;1.63;;
7929;SDS011;4010;42.698;23.124;2024-01-15T10:12:32;3.83;;;2.53;;
7929;SDS011;4010;42.698;23.124;2024-01-15T10:14:59;2.53;;;1.97;;
7929;SDS011;4010;42.698;23.124;2024-01-15T10:17:25;3.47;;;2.07;;
7929;SDS011;4010;42.698;23.124;2024-01-15T10:19:53;4.57;;;3.43;;
7929;SDS011;4010;42.698;23.124;2024-01-15T10:22:19;6.07;;;2.27;;
7929;SDS011;4010;42.698;23.124;2024-01-15T10:24:47;2.63;;;1.83;;
7929;SDS011;4010;42.698;23.124;2024-01-15T10:27:14;4.77;;;2.13;;
7929;SDS011;4010;42.698;23.124;2024-01-15T10:29:42;3.77;;;2.13;;
7929;SDS011;4010;42.698;23.124;2024-01-15T10:32:08;5.30;;;3.37;;
7929;SDS011;4010;42.698;23.124;2024-01-15T10:34:37;7.17;;;4.40;;
7929;SDS011;4010;42.698;23.124;2024-01-15T10:37:06;6.47;;;3.37;;
7929;SDS011;4010;42.698;23.124;2024-01-15T10:39:33;6.70;;;3.30;;
7929;SDS011;4010;42.698;23.124;2024-01-15T10:42:02;4.50;;;2.47;;
7929;SDS011;4010;42.698;23.124;2024-01-15T10:44:29;2.50;;;1.90;;
7929;SDS011;4010;42.698;23.124;2024-01-15T10:46:56;3.20;;;2.47;;
7929;SDS011;4010;42.698;23.124;2024-01-15T10:49:23;6.90;;;2.43;;
7929;SDS011;4010;42.698;23.124;2024-01-15T10:51:52;4.07;;;2.83;;
7929;SDS011;4010;42.698;23.124;2024-01-15T10:54:19;3.77;;;2.33;;
7929;SDS011;4010;42.698;23.124;2024-01-15T10:56:48;4.93;;;2.07;;
7929;SDS011;4010;42.698;23.124;2024-01-15T10:59:17;4.93;;;2.60;;
7929;SDS011;4010;42.698;23.124;2024-01-15T11:01:46;6.77;;;2.60;;
7929;SDS011;4010;42.698;23.124;2024-01-15T11:04:13;3.77;;;2.07;;
7929;SDS011;4010;42.698;23.124;2024-01-15T11:06:42;3.90;;;2.30;;
7929;SDS011;4010;42.698;23.124;2024-01-15T11:09:10;3.33;;;2.10;;
7929;SDS011;4010;42.698;23.124;2024-01-15T11:11:40;3.30;;;2.03;;
7929;SDS011;4010;42.698;23.124;2024-01-15T11:14:08;2.83;;;1.80;;
7929;SDS011;4010;42.698;23.124;2024-01-15T11:19:24;24.53;;;15.90;;
7929;SDS011;4010;42.698;23.124;2024-01-15T11:21:52;4.80;;;2.80;;
7929;SDS011;4010;42.698;23.124;2024-01-15T11:24:34;12.03;;;8.20;;
7929;SDS011;4010;42.698;23.124;2024-01-15T11:27:03;4.30;;;3.40;;
7929;SDS011;4010;42.698;23.124;2024-01-15T11:29:31;2.63;;;2.03;;
7929;SDS011;4010;42.698;23.124;2024-01-15T11:32:01;12.43;;;8.60;;
7929;SDS011;4010;42.698;23.124;2024-01-15T11:37:23;5.80;;;2.40;;
7929;SDS011;4010;42.698;23.124;2024-01-15T11:39:51;2.53;;;2.00;;
7929;SDS011;4010;42.698;23.124;2024-01-15T11:42:19;4.20;;;2.97;;
7929;SDS011;4010;42.698;23.124;2024-01-15T11:44:46;4.17;;;2.10;;
7929;SDS011;4010;42.698;23.124;2024-01-15T11:47:15;16.70;;;10.13;;
7929;SDS011;4010;42.698;23.124;2024-01-15T11:52:30;14.17;;;8.63;;
7929;SDS011;4010;42.698;23.124;2024-01-15T11:55:00;11.97;;;8.23;;
7929;SDS011;4010;42.698;23.124;2024-01-15T11:57:33;14.03;;;7.90;;
7929;SDS011;4010;42.698;23.124;2024-01-15T12:00:07;14.17;;;8.10;;
7929;SDS011;4010;42.698;23.124;2024-01-15T12:02:37;37.70;;;22.57;;
7929;SDS011;4010;42.698;23.124;2024-01-15T12:05:04;4.50;;;3.47;;
7929;SDS011;4010;42.698;23.124;2024-01-15T12:07:32;2.40;;;2.20;;
7929;SDS011;4010;42.698;23.124;2024-01-15T12:09:59;5.10;;;2.13;;
7929;SDS011;4010;42.698;23.124;2024-01-15T12:12:27;3.07;;;1.93;;
7929;SDS011;4010;42.698;23.124;2024-01-15T12:15:04;3.17;;;2.17;;
7929;SDS011;4010;42.698;23.124;2024-01-15T12:17:31;3.90;;;2.57;;
7929;SDS011;4010;42.698;23.124;2024-01-15T12:19:59;3.50;;;1.80;;
7929;SDS011;4010;42.698;23.124;2024-01-15T12:22:25;3.63;;;3.00;;
7929;SDS011;4010;42.698;23.124;2024-01-15T12:24:53;3.35;;;2.15;;
7929;SDS011;4010;42.698;23.124;2024-01-15T12:27:20;3.77;;;2.00;;
7929;SDS011;4010;42.698;23.124;2024-01-15T12:29:47;4.73;;;2.37;;
7929;SDS011;4010;42.698;23.124;2024-01-15T12:32:14;3.77;;;2.17;;
7929;SDS011;4010;42.698;23.124;2024-01-15T12:34:40;4.33;;;2.90;;
7929;SDS011;4010;42.698;23.124;2024-01-15T12:37:08;4.37;;;2.57;;
7929;SDS011;4010;42.698;23.124;2024-01-15T12:39:36;3.93;;;2.17;;
7929;SDS011;4010;42.698;23.124;2024-01-15T12:42:03;2.90;;;1.80;;
7929;SDS011;4010;42.698;23.124;2024-01-15T12:44:30;5.27;;;2.03;;
7929;SDS011;4010;42.698;23.124;2024-01-15T12:46:57;2.80;;;1.70;;
7929;SDS011;4010;42.698;23.124;2024-01-15T12:49:24;4.20;;;2.97;;
7929;SDS011;4010;42.698;23.124;2024-01-15T12:51:52;3.90;;;2.30;;
7929;SDS011;4010;42.698;23.124;2024-01-15T12:54:21;3.73;;;2.13;;
7929;SDS011;4010;42.698;23.124;2024-01-15T12:56:48;2.57;;;2.10;;
7929;SDS011;4010;42.698;23.124;2024-01-15T12:59:15;4.43;;;2.13;;
7929;SDS011;4010;42.698;23.124;2024-01-15T13:01:42;3.13;;;2.10;;
7929;SDS011;4010;42.698;23.124;2024-01-15T13:04:09;6.27;;;2.50;;
7929;SDS011;4010;42.698;23.124;2024-01-15T13:06:36;3.50;;;2.57;;
7929;SDS011;4010;42.698;23.124;2024-01-15T13:09:03;3.30;;;1.80;;
7929;SDS011;4010;42.698;23.124;2024-01-15T13:11:32;2.60;;;1.90;;
7929;SDS011;4010;42.698;23.124;2024-01-15T13:13:59;3.27;;;2.10;;
7929;SDS011;4010;42.698;23.124;2024-01-15T13:16:26;3.50;;;1.73;;
7929;SDS011;4010;42.698;23.124;2024-01-15T13:18:54;3.47;;;2.30;;
7929;SDS011;4010;42.698;23.124;2024-01-15T13:21:21;11.80;;;5.40;;
7929;SDS011;4010;42.698;23.124;2024-01-15T13:23:48;19.93;;;9.77;;
7929;SDS011;4010;42.698;23.124;2024-01-15T13:26:15;22.43;;;13.93;;
7929;SDS011;4010;42.698;23.124;2024-01-15T13:28:44;4.67;;;3.10;;
7929;SDS011;4010;42.698;23.124;2024-01-15T13:31:11;10.73;;;6.33;;
7929;SDS011;4010;42.698;23.124;2024-01-15T13:33:38;5.73;;;2.80;;
7929;SDS011;4010;42.698;23.124;2024-01-15T13:36:05;13.13;;;5.53;;
7929;SDS011;4010;42.698;23.124;2024-01-15T13:38:33;6.57;;;3.13;;
7929;SDS011;4010;42.698;23.124;2024-01-15T13:41:02;9.83;;;5.33;;
7929;SDS011;4010;42.698;23.124;2024-01-15T13:43:28;17.30;;;7.50;;
7929;SDS011;4010;42.698;23.124;2024-01-15T13:45:56;6.10;;;3.17;;
7929;SDS011;4010;42.698;23.124;2024-01-15T13:48:23;6.37;;;3.67;;
7929;SDS011;4010;42.698;23.124;2024-01-15T13:50:51;13.97;;;7.53;;
7929;SDS011;4010;42.698;23.124;2024-01-15T13:53:18;15.63;;;8.50;;
7929;SDS011;4010;42.698;23.124;2024-01-15T13:55:45;4.53;;;2.00;;
7929;SDS011;4010;42.698;23.124;2024-01-15T13:58:12;11.20;;;6.47;;
7929;SDS011;4010;42.698;23.124;2024-01-15T14:00:39;4.47;;;3.80;;
7929;SDS011;4010;42.698;23.124;2024-01-15T14:03:07;1.57;;;1.47;;
7929;SDS011;4010;42.698;23.124;2024-01-15T14:05:34;1.50;;;1.17;;
7929;SDS011;4010;42.698;23.124;2024-01-15T14:08:01;2.50;;;1.57;;
7929;SDS011;4010;42.698;23.124;2024-01-15T14:10:28;3.33;;;2.00;;
7929;SDS011;4010;42.698;23.124;2024-01-15T14:12:55;4.17;;;2.23;;
7929;SDS011;4010;42.698;23.124;2024-01-15T14:15:22;4.33;;;2.33;;
7929;SDS011;4010;42.698;23.124;2024-01-15T14:17:48;2.83;;;1.80;;
7929;SDS011;4010;42.698;23.124;2024-01-15T14:20:16;2.90;;;1.47;;
7929;SDS011;4010;42.698;23.124;2024-01-15T14:22:43;2.67;;;1.80;;
7929;SDS011;4010;42.698;23.124;2024-01-15T14:25:10;3.90;;;2.27;;
7929;SDS011;4010;42.698;23.124;2024-01-15T14:27:37;3.70;;;1.50;;
7929;SDS011;4010;42.698;23.124;2024-01-15T14:30:04;5.23;;;1.80;;
7929;SDS011;4010;42.698;23.124;2024-01-15T14:32:33;4.30;;;2.83;;
7929;SDS011;4010;42.698;23.124;2024-01-15T14:35:00;4.40;;;2.17;;
7929;SDS011;4010;42.698;23.124;2024-01-15T14:37:29;4.23;;;2.03;;
7929;SDS011;4010;42.698;23.124;2024-01-15T14:39:56;7.77;;;4.00;;
7929;SDS011;4010;42.698;23.124;2024-01-15T14:42:23;3.40;;;1.83;;
7929;SDS011;4010;42.698;23.124;2024-01-15T14:44:51;4.30;;;2.30;;
7929;SDS011;4010;42.698;23.124;2024-01-15T14:47:18;10.07;;;3.00;;
7929;SDS011;4010;42.698;23.124;2024-01-15T14:49:48;5.33;;;2.30;;
7929;SDS011;4010;42.698;23.124;2024-01-15T14:52:15;4.87;;;2.23;;
7929;SDS011;4010;42.698;23.124;2024-01-15T14:54:44;3.13;;;2.33;;
7929;SDS011;4010;42.698;23.124;2024-01-15T14:57:10;4.87;;;2.30;;
7929;SDS011;4010;42.698;23.124;2024-01-15T14:59:37;3.77;;;2.33;;